Bishopthorpe, United Kingdom
Current Conditions -  °F | °C
As of 11:50 PM on Friday 28 Nov 2014 (Local Time) from EGXU Reporting Station
Overcast Overcast  
Wind Chill: 46°   Ceiling: 1000
Heat Index: 48°   Visibility: 1.5mi
Dew Point: 48°   Wind: 5mph
Humidity: 100%   Direction: 50°NE
Pressure: 29.83"   Gusts: NA
Location:  53.92°N, 1.1°W
Report Text: EGXU 282350Z AUTO 05004KT 2400 // OVC010/// 09/09 Q1010
Loading
Personal Weather Stations






























Interactive Weather Map New forecast layout! Learn more

10-Day Weather Forecast

Advertisements
Track Severe Weather on mobile